createdAt,value
2022-08-07T00:01:12.471Z,102950.56
2022-08-07T00:03:51.638Z,102955.66
2022-08-07T00:06:18.431Z,102953.78
2022-08-07T00:08:55.937Z,102953.25
2022-08-07T00:11:33.036Z,102950.56
2022-08-07T00:13:59.890Z,102948.16
2022-08-07T00:16:27.905Z,102941.44
2022-08-07T00:18:55.064Z,102938.22
2022-08-07T00:21:57.307Z,102939.56
2022-08-07T00:24:09.253Z,102945.22
2022-08-07T00:26:49.536Z,102945.19
2022-08-07T00:29:26.042Z,102940.09
2022-08-07T00:31:59.719Z,102933.94
2022-08-07T00:34:27.425Z,102929.91
2022-08-07T00:36:56.450Z,102924.28
2022-08-07T00:39:23.035Z,102925.88
2022-08-07T00:42:02.547Z,102928.31
2022-08-07T00:44:33.158Z,102919.75
2022-08-07T00:47:01.102Z,102923.19
2022-08-07T00:50:19.951Z,102924.00
2022-08-07T00:52:17.601Z,102928.28
2022-08-07T00:54:47.115Z,102924.81
2022-08-07T00:57:23.059Z,102919.97
2022-08-07T00:59:52.845Z,102918.63
2022-08-07T01:02:28.386Z,102923.72
2022-08-07T01:04:58.234Z,102912.75
2022-08-07T01:07:27.593Z,102909.25
2022-08-07T01:10:06.782Z,102915.69
2022-08-07T01:12:38.692Z,102919.16
2022-08-07T01:15:06.665Z,102912.44
2022-08-07T01:17:40.033Z,102912.16
2022-08-07T01:20:17.189Z,102909.22
2022-08-07T01:22:54.104Z,102908.69
2022-08-07T01:25:53.722Z,102910.28
2022-08-07T01:28:15.328Z,102915.09
2022-08-07T01:30:42.475Z,102905.72
2022-08-07T01:33:09.113Z,102900.63
2022-08-07T01:35:53.115Z,102904.66
2022-08-07T01:38:24.802Z,102908.13
2022-08-07T01:40:58.747Z,102901.16
2022-08-07T01:43:38.315Z,102908.13
2022-08-07T01:46:05.799Z,102901.44
2022-08-07T01:48:35.769Z,102898.47
2022-08-07T01:52:02.399Z,102904.34
2022-08-07T01:54:09.114Z,102897.09
2022-08-07T01:56:50.239Z,102897.06
2022-08-07T01:59:31.046Z,102899.50
2022-08-07T02:02:07.285Z,102893.56
2022-08-07T02:04:52.507Z,102897.56
2022-08-07T02:07:36.176Z,102899.19
2022-08-07T02:10:19.035Z,102898.38
2022-08-07T02:12:50.087Z,102894.38
2022-08-07T02:15:22.579Z,102900.53
2022-08-07T02:17:51.672Z,102889.28
2022-08-07T02:20:23.387Z,102901.03
2022-08-07T02:22:57.589Z,102892.47
2022-08-07T02:26:10.921Z,102885.78
2022-08-07T02:28:24.453Z,102898.38
2022-08-07T02:30:53.070Z,102887.91
2022-08-07T02:33:20.241Z,102887.13
2022-08-07T02:36:29.206Z,102891.13
2022-08-07T02:38:39.169Z,102886.56
2022-08-07T02:41:21.787Z,102882.53
2022-08-07T02:43:49.827Z,102882.25
2022-08-07T02:46:19.611Z,102887.06
2022-08-07T02:48:47.109Z,102891.88
2022-08-07T02:51:42.748Z,102888.38
2022-08-07T02:54:13.173Z,102878.75
2022-08-07T02:56:42.319Z,102885.16
2022-08-07T02:59:11.751Z,102883.25
2022-08-07T03:01:39.440Z,102880.84
2022-08-07T03:04:12.451Z,102881.63
2022-08-07T03:06:44.863Z,102883.50
2022-08-07T03:09:13.732Z,102878.66
2022-08-07T03:11:51.845Z,102875.19
2022-08-07T03:14:24.722Z,102875.19
2022-08-07T03:16:52.298Z,102876.22
2022-08-07T03:19:19.476Z,102876.50
2022-08-07T03:21:50.550Z,102879.44
2022-08-07T03:24:25.864Z,102877.31
2022-08-07T03:26:58.574Z,102884.53
2022-08-07T03:29:30.495Z,102883.44
2022-08-07T03:31:58.270Z,102877.25
2022-08-07T03:34:27.787Z,102876.94
2022-08-07T03:36:57.340Z,102871.31
2022-08-07T03:39:59.113Z,102872.38
2022-08-07T03:42:14.216Z,102879.31
2022-08-07T03:44:41.498Z,102870.25
2022-08-07T03:47:13.732Z,102875.59
2022-08-07T03:49:47.723Z,102876.16
2022-08-07T03:52:26.521Z,102863.56
2022-08-07T03:55:06.946Z,102874.53
2022-08-07T03:58:34.485Z,102873.72
2022-08-07T04:00:30.548Z,102871.81
2022-08-07T04:03:03.895Z,102867.78
2022-08-07T04:05:40.754Z,102865.63
2022-08-07T04:08:18.398Z,102870.97
2022-08-07T04:10:54.666Z,102879.00
2022-08-07T04:14:10.176Z,102877.91
2022-08-07T04:16:30.911Z,102872.84
2022-08-07T04:19:01.373Z,102878.19
2022-08-07T04:21:31.195Z,102874.75
2022-08-07T04:24:07.020Z,102873.94
2022-08-07T04:26:34.746Z,102875.53
2022-08-07T04:29:03.186Z,102881.69
2022-08-07T04:31:38.763Z,102888.13
2022-08-07T04:34:27.457Z,102886.53
2022-08-07T04:37:01.076Z,102890.53
2022-08-07T04:39:35.545Z,102895.59
2022-08-07T04:42:03.976Z,102893.72
2022-08-07T04:44:30.739Z,102887.56
2022-08-07T04:47:09.609Z,102894.25
2022-08-07T04:50:04.263Z,102896.38
2022-08-07T04:52:46.824Z,102893.41
2022-08-07T04:58:15.000Z,102891.56
2022-08-07T04:59:09.073Z,102896.13
2022-08-07T05:01:39.313Z,102898.56
2022-08-07T05:04:17.828Z,102899.59
2022-08-07T05:07:19.678Z,102893.22
2022-08-07T05:09:59.440Z,102891.59
2022-08-07T05:12:33.384Z,102902.91
2022-08-07T05:15:23.138Z,102895.19
2022-08-07T05:17:57.115Z,102904.91
2022-08-07T05:20:33.803Z,102898.78
2022-08-07T05:23:15.807Z,102901.50
2022-08-07T05:26:13.890Z,102895.41
2022-08-07T05:28:35.094Z,102895.16
2022-08-07T05:31:03.795Z,102900.31
2022-08-07T05:33:35.311Z,102905.44
2022-08-07T05:36:04.607Z,102907.88
2022-08-07T05:39:00.729Z,102910.84
2022-08-07T05:41:21.708Z,102903.09
2022-08-07T05:44:08.710Z,102899.88
2022-08-07T05:46:39.064Z,102901.50
2022-08-07T05:49:11.799Z,102887.78
2022-08-07T05:51:40.057Z,102879.97
2022-08-07T05:54:12.002Z,102882.28
2022-08-07T05:56:56.727Z,102885.41
2022-08-07T05:59:25.291Z,102893.09
2022-08-07T06:01:54.680Z,102897.81
2022-08-07T06:04:30.325Z,102901.13
2022-08-07T06:07:03.915Z,102910.63
2022-08-07T06:09:44.955Z,102915.56
2022-08-07T06:12:15.388Z,102908.13
2022-08-07T06:14:43.161Z,102904.03
2022-08-07T06:17:19.319Z,102897.69
2022-08-07T06:20:03.437Z,102894.91
2022-08-07T06:22:36.905Z,102901.19
2022-08-07T06:25:05.956Z,102898.88
2022-08-07T06:27:59.784Z,102901.72
2022-08-07T06:30:32.048Z,102906.69
2022-08-07T06:33:04.031Z,102906.78
2022-08-07T06:35:45.679Z,102909.63
2022-08-07T06:38:20.413Z,102904.91
2022-08-07T06:40:53.265Z,102905.84
2022-08-07T06:43:22.666Z,102909.47
2022-08-07T06:45:50.705Z,102895.34
2022-08-07T06:48:24.987Z,102899.56
2022-08-07T06:50:54.372Z,102900.75
2022-08-07T06:54:11.824Z,102902.09
2022-08-07T06:56:14.737Z,102899.97
2022-08-07T07:00:12.928Z,102899.38
2022-08-07T07:01:43.873Z,102892.66
2022-08-07T07:04:28.637Z,102897.97
2022-08-07T07:07:10.309Z,102885.69
2022-08-07T07:09:47.516Z,102894.06
2022-08-07T07:12:41.727Z,102898.06
2022-08-07T07:15:26.370Z,102897.69
2022-08-07T07:18:48.000Z,102906.19
2022-08-07T07:21:19.734Z,102906.19
2022-08-07T07:24:11.033Z,102907.66
2022-08-07T07:26:37.944Z,102919.44
2022-08-07T07:29:39.626Z,102910.84
2022-08-07T07:32:01.584Z,102905.53
2022-08-07T07:34:31.910Z,102921.94
2022-08-07T07:37:05.387Z,102922.84
2022-08-07T07:39:54.944Z,102915.75
2022-08-07T07:42:25.754Z,102916.56
2022-08-07T07:45:03.408Z,102913.50
2022-08-07T07:47:51.664Z,102915.31
2022-08-07T07:50:33.756Z,102908.63
2022-08-07T07:53:20.378Z,102902.72
2022-08-07T07:55:54.922Z,102906.72
2022-08-07T07:58:30.130Z,102900.16
2022-08-07T08:00:58.649Z,102897.38
2022-08-07T08:04:05.994Z,102894.59
2022-08-07T08:06:18.024Z,102893.44
2022-08-07T08:08:46.101Z,102889.72
2022-08-07T08:11:18.181Z,102884.03
2022-08-07T08:14:03.051Z,102890.97
2022-08-07T08:16:36.921Z,102887.88
2022-08-07T08:19:17.976Z,102888.44
2022-08-07T08:22:11.613Z,102881.38
2022-08-07T08:25:18.885Z,102885.91
2022-08-07T08:27:57.223Z,102879.28
2022-08-07T08:30:30.119Z,102877.03
2022-08-07T08:33:01.859Z,102874.22
2022-08-07T08:35:39.628Z,102871.44
2022-08-07T08:38:16.890Z,102871.66
2022-08-07T08:40:53.625Z,102871.34
2022-08-07T08:43:42.482Z,102875.72
2022-08-07T08:46:34.380Z,102883.44
2022-08-07T08:49:32.753Z,102867.94
2022-08-07T08:52:14.420Z,102867.91
2022-08-07T08:54:51.763Z,102874.47
2022-08-07T08:57:30.301Z,102873.97
2022-08-07T09:00:06.891Z,102870.78
2022-08-07T09:02:39.297Z,102863.69
2022-08-07T09:05:36.931Z,102869.78
2022-08-07T09:08:47.064Z,102863.19
2022-08-07T09:11:24.177Z,102860.06
2022-08-07T09:14:16.604Z,102856.94
2022-08-07T09:16:47.622Z,102852.53
2022-08-07T09:19:56.033Z,102854.53
2022-08-07T09:24:31.603Z,102851.69
2022-08-07T09:26:06.634Z,102845.91
2022-08-07T09:30:00.815Z,102846.56
2022-08-07T09:31:48.554Z,102852.88
2022-08-07T09:34:26.213Z,102847.75
2022-08-07T09:37:17.297Z,102849.22
2022-08-07T09:40:08.908Z,102845.44
2022-08-07T09:42:54.337Z,102852.66
2022-08-07T09:47:49.986Z,102841.22
2022-08-07T09:50:02.859Z,102839.78
2022-08-07T09:52:10.378Z,102838.56
2022-08-07T09:54:48.736Z,102835.72
2022-08-07T09:57:53.191Z,102841.97
2022-08-07T10:00:31.844Z,102831.19
2022-08-07T10:04:03.634Z,102821.53
2022-08-07T10:06:24.610Z,102829.66
2022-08-07T10:09:13.256Z,102827.72
2022-08-07T10:12:11.758Z,102828.28
2022-08-07T10:14:54.958Z,102822.56
2022-08-07T10:18:03.230Z,102820.53
2022-08-07T10:21:19.614Z,102802.84
2022-08-07T10:24:25.481Z,102802.56
2022-08-07T10:27:18.678Z,102802.09
2022-08-07T10:30:07.359Z,102802.56
2022-08-07T10:34:05.115Z,102804.03
2022-08-07T10:36:29.329Z,102795.25
2022-08-07T10:39:17.680Z,102795.72
2022-08-07T10:42:09.359Z,102792.72
2022-08-07T10:44:56.591Z,102788.75
2022-08-07T10:47:52.783Z,102789.25
2022-08-07T10:50:26.001Z,102780.97
2022-08-07T10:53:21.541Z,102783.69
2022-08-07T10:56:20.787Z,102780.97
2022-08-07T10:59:13.577Z,102780.53
2022-08-07T11:02:12.310Z,102771.41
2022-08-07T11:05:48.841Z,102768.88
2022-08-07T11:08:32.417Z,102773.81
2022-08-07T11:11:07.697Z,102757.72
2022-08-07T11:14:44.578Z,102755.19
2022-08-07T11:16:51.346Z,102751.19
2022-08-07T11:19:50.220Z,102752.59
2022-08-07T11:22:45.793Z,102743.00
2022-08-07T11:25:35.933Z,102746.34
2022-08-07T11:28:16.606Z,102742.84
2022-08-07T11:31:08.775Z,102744.09
2022-08-07T11:33:58.428Z,102745.97
2022-08-07T11:36:45.267Z,102741.03
2022-08-07T11:40:01.630Z,102740.72
2022-08-07T11:42:44.933Z,102738.78
2022-08-07T11:45:20.507Z,102729.22
2022-08-07T11:48:29.904Z,102730.66
2022-08-07T11:51:01.634Z,102726.19
2022-08-07T11:53:37.870Z,102729.03
2022-08-07T11:56:52.238Z,102715.59
2022-08-07T12:00:12.466Z,102711.44
2022-08-07T12:02:58.709Z,102712.69
2022-08-07T12:05:48.959Z,102713.50
2022-08-07T12:08:42.641Z,102708.84
2022-08-07T12:11:32.591Z,102700.69
2022-08-07T12:14:11.091Z,102703.88
2022-08-07T12:16:46.248Z,102704.59
2022-08-07T12:19:35.683Z,102706.31
2022-08-07T12:22:47.218Z,102700.19
2022-08-07T12:26:05.749Z,102715.09
2022-08-07T12:28:55.782Z,102708.97
2022-08-07T12:31:53.067Z,102711.66
2022-08-07T12:34:33.954Z,102710.09
2022-08-07T12:37:08.125Z,102706.41
2022-08-07T12:39:51.361Z,102700.66
2022-08-07T12:42:27.824Z,102702.25
2022-08-07T12:44:58.170Z,102703.38
2022-08-07T12:47:50.212Z,102692.00
2022-08-07T12:50:48.921Z,102703.19
2022-08-07T12:54:03.188Z,102700.59
2022-08-07T12:56:35.908Z,102694.00
2022-08-07T12:59:08.324Z,102701.22
2022-08-07T13:02:10.157Z,102692.19
2022-08-07T13:06:01.919Z,102700.81
2022-08-07T13:08:21.490Z,102692.19
2022-08-07T13:10:54.601Z,102697.72
2022-08-07T13:13:46.996Z,102685.69
2022-08-07T13:16:30.017Z,102689.81
2022-08-07T13:19:46.066Z,102689.47
2022-08-07T13:22:27.670Z,102686.31
2022-08-07T13:25:02.376Z,102681.78
2022-08-07T13:28:13.808Z,102686.53
2022-08-07T13:30:40.145Z,102688.25
2022-08-07T13:34:33.577Z,102678.19
2022-08-07T13:36:27.235Z,102677.38
2022-08-07T13:39:04.925Z,102670.16
2022-08-07T13:41:47.249Z,102673.00
2022-08-07T13:44:26.067Z,102668.16
2022-08-07T13:46:59.484Z,102664.88
2022-08-07T13:50:34.310Z,102662.94
2022-08-07T13:52:31.640Z,102658.53
2022-08-07T13:55:10.958Z,102663.63
2022-08-07T13:57:53.538Z,102661.94
2022-08-07T14:00:39.481Z,102666.38
2022-08-07T14:03:28.896Z,102663.66
2022-08-07T14:06:14.005Z,102659.56
2022-08-07T14:08:46.028Z,102660.81
2022-08-07T14:11:22.922Z,102669.56
2022-08-07T14:13:56.146Z,102664.00
2022-08-07T14:16:33.503Z,102659.00
2022-08-07T14:19:03.142Z,102662.66
2022-08-07T14:22:03.389Z,102662.78
2022-08-07T14:24:35.436Z,102660.84
2022-08-07T14:28:09.275Z,102665.94
2022-08-07T14:30:11.106Z,102666.16
2022-08-07T14:32:46.096Z,102659.00
2022-08-07T14:35:45.626Z,102654.81
2022-08-07T14:38:09.207Z,102658.31
2022-08-07T14:40:59.148Z,102657.53
2022-08-07T14:43:59.028Z,102661.63
2022-08-07T14:46:22.653Z,102658.22
2022-08-07T14:49:57.551Z,102660.03
2022-08-07T14:52:03.779Z,102660.69
2022-08-07T14:54:42.008Z,102652.75
2022-08-07T14:57:19.277Z,102662.84
2022-08-07T15:00:05.439Z,102648.34
2022-08-07T15:05:23.543Z,102643.94
2022-08-07T15:10:59.023Z,102650.38
2022-08-07T15:13:36.886Z,102644.06
2022-08-07T15:18:57.206Z,102640.44
2022-08-07T15:21:58.474Z,102644.38
2022-08-07T15:25:15.573Z,102629.78
2022-08-07T15:27:15.398Z,102631.03
2022-08-07T15:30:06.690Z,102633.84
2022-08-07T15:36:02.494Z,102634.75
2022-08-07T15:38:29.798Z,102637.94
2022-08-07T15:41:23.970Z,102633.31
2022-08-07T15:44:00.273Z,102625.94
2022-08-07T15:46:31.804Z,102628.06
2022-08-07T15:49:12.868Z,102622.16
2022-08-07T15:54:33.958Z,102628.03
2022-08-07T15:57:02.860Z,102625.78
2022-08-07T15:59:39.314Z,102622.50
2022-08-07T16:02:23.526Z,102618.97
2022-08-07T16:04:56.361Z,102618.00
2022-08-07T16:08:32.551Z,102614.88
2022-08-07T16:10:21.816Z,102613.50
2022-08-07T16:13:18.102Z,102605.94
2022-08-07T16:16:43.153Z,102608.66
2022-08-07T16:19:42.283Z,102606.97
2022-08-07T16:22:38.678Z,102600.56
2022-08-07T16:25:54.597Z,102604.44
2022-08-07T16:30:08.412Z,102605.94
2022-08-07T16:31:57.926Z,102602.63
2022-08-07T16:34:38.666Z,102603.44
2022-08-07T16:38:03.393Z,102608.59
2022-08-07T16:40:33.412Z,102611.75
2022-08-07T16:44:05.658Z,102610.19
2022-08-07T16:47:07.592Z,102617.75
2022-08-07T16:50:20.232Z,102620.59
2022-08-07T16:54:02.532Z,102611.53
2022-08-07T16:56:25.692Z,102607.59
2022-08-07T16:59:10.621Z,102609.06
2022-08-07T17:02:02.943Z,102610.66
2022-08-07T17:04:57.482Z,102615.81
2022-08-07T17:07:55.969Z,102607.41
2022-08-07T17:10:33.084Z,102615.88
2022-08-07T17:13:41.532Z,102614.25
2022-08-07T17:16:55.873Z,102613.56
2022-08-07T17:20:02.852Z,102616.97
2022-08-07T17:22:36.303Z,102607.00
2022-08-07T17:25:47.618Z,102614.25
2022-08-07T17:28:19.843Z,102609.66
2022-08-07T17:31:16.541Z,102607.63
2022-08-07T17:34:18.187Z,102619.75
2022-08-07T17:36:59.866Z,102605.59
2022-08-07T17:39:53.059Z,102605.13
2022-08-07T17:42:58.554Z,102609.44
2022-08-07T17:45:35.258Z,102608.66
2022-08-07T17:48:31.013Z,102610.25
2022-08-07T17:51:21.343Z,102607.56
2022-08-07T17:54:06.546Z,102606.31
2022-08-07T17:56:52.582Z,102612.03
2022-08-07T17:59:42.148Z,102617.94
2022-08-07T18:02:15.448Z,102615.88
2022-08-07T18:04:51.531Z,102608.25
2022-08-07T18:07:37.435Z,102616.38
2022-08-07T18:10:32.459Z,102609.53
2022-08-07T18:12:59.776Z,102620.69
2022-08-07T18:15:32.561Z,102620.84
2022-08-07T18:18:46.421Z,102617.66
2022-08-07T18:21:03.666Z,102619.41
2022-08-07T18:23:57.313Z,102621.03
2022-08-07T18:26:50.253Z,102616.25
2022-08-07T18:30:07.510Z,102620.56
2022-08-07T18:32:46.120Z,102625.81
2022-08-07T18:35:55.623Z,102627.56
2022-08-07T18:38:55.184Z,102638.09
2022-08-07T18:41:54.861Z,102636.16
2022-08-07T18:44:24.060Z,102630.28
2022-08-07T18:47:10.927Z,102636.47
2022-08-07T18:50:39.314Z,102640.47
2022-08-07T18:53:36.502Z,102637.38
2022-08-07T18:56:42.134Z,102644.53
2022-08-07T19:00:04.440Z,102648.53
2022-08-07T19:02:44.107Z,102646.44
2022-08-07T19:06:03.426Z,102643.53
2022-08-07T19:08:58.890Z,102653.09
2022-08-07T19:12:03.919Z,102653.72
2022-08-07T19:14:51.247Z,102661.19
2022-08-07T19:17:54.517Z,102655.13
2022-08-07T19:20:29.294Z,102655.75
2022-08-07T19:23:18.924Z,102656.38
2022-08-07T19:26:25.215Z,102657.00
2022-08-07T19:30:57.473Z,102658.25
2022-08-07T19:32:08.212Z,102653.44
2022-08-07T19:34:34.221Z,102663.59
2022-08-07T19:37:09.957Z,102662.63
2022-08-07T19:39:57.895Z,102672.78
2022-08-07T19:42:31.004Z,102679.63
2022-08-07T19:45:08.477Z,102683.41
2022-08-07T19:47:41.999Z,102682.91
2022-08-07T19:50:43.876Z,102686.84
2022-08-07T19:52:59.066Z,102683.94
2022-08-07T19:55:58.083Z,102695.72
2022-08-07T19:58:18.524Z,102693.03
2022-08-07T20:00:57.795Z,102696.06
2022-08-07T20:03:34.661Z,102690.66
2022-08-07T20:06:04.621Z,102693.84
2022-08-07T20:08:34.588Z,102692.72
2022-08-07T20:11:10.184Z,102694.63
2022-08-07T20:13:55.457Z,102699.25
2022-08-07T20:16:35.384Z,102696.84
2022-08-07T20:19:10.194Z,102705.56
2022-08-07T20:21:42.119Z,102703.59
2022-08-07T20:24:18.106Z,102707.66
2022-08-07T20:26:52.087Z,102706.81
2022-08-07T20:29:48.704Z,102709.63
2022-08-07T20:32:39.918Z,102702.31
2022-08-07T20:35:12.768Z,102705.94
2022-08-07T20:37:48.538Z,102711.28
2022-08-07T20:40:32.077Z,102712.50
2022-08-07T20:43:14.836Z,102711.00
2022-08-07T20:46:26.873Z,102709.03
2022-08-07T20:48:57.997Z,102708.03
2022-08-07T20:51:30.084Z,102712.25
2022-08-07T20:54:08.696Z,102704.22
2022-08-07T20:56:46.154Z,102708.63
2022-08-07T21:00:05.439Z,102701.47
2022-08-07T21:02:32.919Z,102701.53
2022-08-07T21:05:16.675Z,102706.28
2022-08-07T21:07:48.791Z,102710.84
2022-08-07T21:10:29.676Z,102711.75
2022-08-07T21:13:05.843Z,102722.66
2022-08-07T21:15:58.063Z,102724.06
2022-08-07T21:18:29.623Z,102720.38
2022-08-07T21:21:01.760Z,102716.16
2022-08-07T21:23:56.323Z,102712.66
2022-08-07T21:26:44.079Z,102716.25
2022-08-07T21:29:39.328Z,102703.69
2022-08-07T21:32:47.733Z,102707.44
2022-08-07T21:35:09.296Z,102711.34
2022-08-07T21:38:00.156Z,102707.69
2022-08-07T21:40:38.827Z,102712.56
2022-08-07T21:43:11.112Z,102717.94
2022-08-07T21:46:10.901Z,102710.94
2022-08-07T21:48:56.533Z,102714.75
2022-08-07T21:52:02.405Z,102715.34
2022-08-07T21:54:31.837Z,102714.03
2022-08-07T21:57:39.676Z,102711.91
2022-08-07T22:00:22.925Z,102715.50
2022-08-07T22:03:17.383Z,102712.69
2022-08-07T22:06:07.832Z,102724.84
2022-08-07T22:09:01.721Z,102721.16
2022-08-07T22:12:05.685Z,102722.84
2022-08-07T22:14:36.077Z,102725.31
2022-08-07T22:17:05.923Z,102728.59
2022-08-07T22:19:44.613Z,102727.00
2022-08-07T22:22:27.864Z,102731.31
2022-08-07T22:25:02.890Z,102723.50
2022-08-07T22:28:07.449Z,102727.09
2022-08-07T22:30:35.349Z,102736.53
2022-08-07T22:33:15.153Z,102733.06
2022-08-07T22:35:55.109Z,102733.06
2022-08-07T22:38:47.836Z,102730.06
2022-08-07T22:42:02.546Z,102730.66
2022-08-07T22:44:20.086Z,102738.44
2022-08-07T22:47:16.761Z,102742.25
2022-08-07T22:50:29.017Z,102742.75
2022-08-07T22:53:19.047Z,102746.81
2022-08-07T22:56:13.223Z,102748.81
2022-08-07T22:58:57.989Z,102753.38
2022-08-07T23:02:00.472Z,102752.88
2022-08-07T23:06:08.600Z,102746.69
2022-08-07T23:08:12.164Z,102755.13
2022-08-07T23:11:08.587Z,102759.78
2022-08-07T23:14:09.061Z,102752.34
2022-08-07T23:17:08.646Z,102756.16
2022-08-07T23:20:51.696Z,102757.53
2022-08-07T23:24:05.484Z,102756.00
2022-08-07T23:26:25.149Z,102750.41
2022-08-07T23:29:44.036Z,102760.66
2022-08-07T23:34:21.804Z,102761.25
2022-08-07T23:35:12.291Z,102763.19
2022-08-07T23:38:00.555Z,102762.19
2022-08-07T23:40:52.909Z,102743.91
2022-08-07T23:43:59.291Z,102746.38
2022-08-07T23:47:02.813Z,102755.22
2022-08-07T23:50:02.853Z,102759.53
2022-08-07T23:53:01.036Z,102759.31
2022-08-07T23:55:53.449Z,102763.94
2022-08-07T23:58:49.903Z,102756.75
